createdAt,value
2023-03-25T00:01:42.141Z,13.25
2023-03-25T00:04:10.517Z,13.23
2023-03-25T00:06:39.329Z,13.21
2023-03-25T00:09:08.429Z,13.19
2023-03-25T00:11:37.838Z,13.18
2023-03-25T00:14:06.718Z,13.16
2023-03-25T00:16:41.795Z,13.14
2023-03-25T00:19:10.210Z,13.12
2023-03-25T00:21:40.015Z,13.15
2023-03-25T00:24:12.565Z,13.13
2023-03-25T00:26:42.905Z,13.14
2023-03-25T00:29:11.397Z,13.17
2023-03-25T00:31:42.572Z,13.17
2023-03-25T00:34:14.626Z,13.18
2023-03-25T00:36:49.117Z,13.19
2023-03-25T00:39:18.523Z,13.18
2023-03-25T00:41:48.533Z,13.15
2023-03-25T00:44:18.962Z,13.11
2023-03-25T00:46:47.894Z,13.09
2023-03-25T00:49:25.234Z,13.12
2023-03-25T00:51:56.900Z,13.08
2023-03-25T00:54:27.726Z,13.02
2023-03-25T00:56:56.503Z,13.01
2023-03-25T00:59:25.096Z,13.04
2023-03-25T01:01:56.450Z,13.04
2023-03-25T01:04:25.232Z,13.05
2023-03-25T01:06:55.251Z,13.05
2023-03-25T01:09:26.494Z,13.05
2023-03-25T01:11:56.302Z,13.04
2023-03-25T01:14:27.546Z,13.04
2023-03-25T01:16:55.833Z,13.06
2023-03-25T01:19:25.528Z,13.04
2023-03-25T01:22:03.634Z,13.02
2023-03-25T01:24:32.324Z,13.01
2023-03-25T01:27:00.800Z,12.97
2023-03-25T01:29:30.750Z,12.95
2023-03-25T01:31:59.402Z,12.95
2023-03-25T01:34:27.882Z,12.94
2023-03-25T01:36:56.666Z,12.96
2023-03-25T01:39:25.909Z,12.97
2023-03-25T01:41:55.455Z,12.97
2023-03-25T01:44:25.519Z,12.94
2023-03-25T01:46:56.374Z,12.94
2023-03-25T01:49:31.398Z,12.95
2023-03-25T01:52:07.256Z,12.95
2023-03-25T01:54:37.628Z,12.97
2023-03-25T01:57:06.890Z,12.92
2023-03-25T01:59:35.446Z,12.89
2023-03-25T02:02:08.647Z,12.89
2023-03-25T02:04:46.399Z,12.92
2023-03-25T02:07:16.826Z,12.94
2023-03-25T02:09:45.406Z,12.96
2023-03-25T02:12:14.190Z,12.99
2023-03-25T02:14:46.153Z,12.97
2023-03-25T02:17:33.523Z,12.96
2023-03-25T02:20:36.463Z,12.93
2023-03-25T02:23:15.003Z,12.91
2023-03-25T02:26:06.120Z,12.89
2023-03-25T02:28:39.583Z,12.86
2023-03-25T02:31:29.706Z,12.83
2023-03-25T02:34:09.007Z,12.77
2023-03-25T02:37:06.118Z,12.73
2023-03-25T02:39:43.209Z,12.70
2023-03-25T02:42:11.616Z,12.67
2023-03-25T02:44:42.507Z,12.68
2023-03-25T02:47:14.880Z,12.67
2023-03-25T02:49:55.938Z,12.67
2023-03-25T02:52:28.855Z,12.67
2023-03-25T02:55:02.073Z,12.61
2023-03-25T02:57:32.642Z,12.57
2023-03-25T03:00:08.073Z,12.57
2023-03-25T03:02:50.815Z,12.53
2023-03-25T03:05:22.412Z,12.51
2023-03-25T03:08:14.968Z,12.47
2023-03-25T03:11:06.993Z,12.51
2023-03-25T03:13:46.628Z,12.51
2023-03-25T03:16:22.020Z,12.47
2023-03-25T03:19:05.500Z,12.52
2023-03-25T03:21:51.695Z,12.48
2023-03-25T03:24:30.026Z,12.44
2023-03-25T03:27:15.111Z,12.45
2023-03-25T03:29:51.337Z,12.44
2023-03-25T03:32:30.928Z,12.45
2023-03-25T03:35:04.479Z,12.39
2023-03-25T03:37:41.831Z,12.37
2023-03-25T03:40:14.208Z,12.35
2023-03-25T03:42:50.860Z,12.34
2023-03-25T03:45:22.571Z,12.37
2023-03-25T03:47:52.921Z,12.39
2023-03-25T03:50:25.502Z,12.36
2023-03-25T03:53:04.027Z,12.31
2023-03-25T03:55:40.342Z,12.26
2023-03-25T03:58:16.410Z,12.16
2023-03-25T04:01:09.946Z,12.19
2023-03-25T04:03:45.333Z,12.23
2023-03-25T04:06:13.573Z,12.23
2023-03-25T04:08:51.904Z,12.22
2023-03-25T04:11:23.157Z,12.21
2023-03-25T04:13:52.410Z,12.19
2023-03-25T04:16:20.870Z,12.14
2023-03-25T04:18:53.878Z,12.11
2023-03-25T04:21:25.565Z,12.08
2023-03-25T04:23:53.792Z,12.09
2023-03-25T04:26:22.035Z,12.11
2023-03-25T04:28:52.939Z,12.14
2023-03-25T04:31:21.968Z,12.15
2023-03-25T04:33:50.954Z,12.15
2023-03-25T04:36:20.275Z,12.17
2023-03-25T04:38:48.805Z,12.18
2023-03-25T04:41:23.345Z,12.21
2023-03-25T04:43:51.798Z,12.20
2023-03-25T04:46:20.667Z,12.20
2023-03-25T04:56:24.545Z,12.15
2023-03-25T04:58:53.454Z,12.15
2023-03-25T05:01:24.675Z,12.16
2023-03-25T05:03:53.172Z,12.14
2023-03-25T05:06:26.291Z,12.17
2023-03-25T05:08:56.425Z,12.18
2023-03-25T05:11:24.524Z,12.20
2023-03-25T05:13:57.864Z,12.20
2023-03-25T05:16:26.832Z,12.20
2023-03-25T05:18:55.196Z,12.22
2023-03-25T05:21:31.863Z,12.25
2023-03-25T05:24:01.840Z,12.28
2023-03-25T05:26:34.562Z,12.32
2023-03-25T05:29:21.270Z,12.35
2023-03-25T05:31:49.657Z,12.37
2023-03-25T05:34:20.771Z,12.36
2023-03-25T05:36:49.989Z,12.35
2023-03-25T05:39:20.824Z,12.31
2023-03-25T05:41:50.636Z,12.27
2023-03-25T05:44:20.341Z,12.25
2023-03-25T05:46:49.349Z,12.21
2023-03-25T05:49:17.591Z,12.17
2023-03-25T05:51:54.398Z,12.12
2023-03-25T05:54:24.741Z,12.11
2023-03-25T05:56:53.255Z,12.08
2023-03-25T05:59:22.077Z,12.09
2023-03-25T06:01:50.586Z,12.09
2023-03-25T06:04:22.081Z,12.10
2023-03-25T06:06:51.726Z,12.12
2023-03-25T06:09:20.394Z,12.14
2023-03-25T06:11:53.791Z,12.15
2023-03-25T06:14:25.759Z,12.18
2023-03-25T06:16:56.924Z,12.20
2023-03-25T06:19:26.646Z,12.20
2023-03-25T06:22:01.020Z,12.21
2023-03-25T06:24:37.910Z,12.20
2023-03-25T06:27:07.504Z,12.20
2023-03-25T06:29:39.010Z,12.21
2023-03-25T06:32:07.638Z,12.20
2023-03-25T06:34:35.962Z,12.18
2023-03-25T06:37:05.213Z,12.19
2023-03-25T06:39:34.203Z,12.20
2023-03-25T06:42:07.426Z,12.20
2023-03-25T06:44:54.324Z,12.20
2023-03-25T06:47:39.984Z,12.19
2023-03-25T06:50:09.089Z,12.21
2023-03-25T06:52:37.886Z,12.21
2023-03-25T06:55:07.765Z,12.21
2023-03-25T06:57:36.370Z,12.26
2023-03-25T07:00:06.862Z,12.28
2023-03-25T07:02:48.415Z,12.34
2023-03-25T07:05:16.965Z,12.38
2023-03-25T07:07:45.867Z,12.42
2023-03-25T07:10:15.560Z,12.51
2023-03-25T07:12:43.940Z,12.54
2023-03-25T07:15:17.117Z,12.60
2023-03-25T07:17:49.515Z,12.66
2023-03-25T07:20:18.097Z,12.65
2023-03-25T07:22:50.718Z,12.70
2023-03-25T07:25:19.145Z,12.75
2023-03-25T07:27:53.045Z,12.75
2023-03-25T07:30:22.270Z,12.78
2023-03-25T07:32:51.031Z,12.70
2023-03-25T07:35:20.495Z,12.72
2023-03-25T07:37:49.424Z,12.76
2023-03-25T07:40:18.109Z,12.81
2023-03-25T07:42:49.966Z,12.89
2023-03-25T07:45:23.412Z,12.98
2023-03-25T07:47:55.636Z,13.06
2023-03-25T07:50:26.072Z,13.16
2023-03-25T07:52:55.598Z,13.13
2023-03-25T07:55:24.340Z,13.12
2023-03-25T07:57:52.733Z,13.19
2023-03-25T08:00:27.020Z,13.21
2023-03-25T08:02:56.589Z,13.20
2023-03-25T08:05:28.080Z,13.16
2023-03-25T08:08:00.463Z,13.09
2023-03-25T08:10:29.233Z,13.09
2023-03-25T08:13:03.922Z,13.08
2023-03-25T08:15:34.956Z,13.11
2023-03-25T08:18:03.927Z,13.12
2023-03-25T08:20:39.247Z,13.18
2023-03-25T08:23:10.770Z,13.23
2023-03-25T08:25:39.249Z,13.30
2023-03-25T08:28:08.604Z,13.38
2023-03-25T08:30:38.560Z,13.48
2023-03-25T08:33:07.549Z,13.58
2023-03-25T08:35:56.715Z,13.68
2023-03-25T08:38:25.842Z,13.82
2023-03-25T08:40:56.026Z,13.95
2023-03-25T08:43:27.819Z,14.11
2023-03-25T08:45:59.491Z,14.18
2023-03-25T08:48:27.953Z,14.19
2023-03-25T08:50:59.488Z,14.21
2023-03-25T08:53:28.218Z,14.23
2023-03-25T08:55:57.428Z,14.22
2023-03-25T08:58:26.072Z,14.21
2023-03-25T09:00:58.306Z,14.23
2023-03-25T09:03:27.564Z,14.25
2023-03-25T09:05:59.416Z,14.29
2023-03-25T09:08:28.029Z,14.33
2023-03-25T09:10:56.971Z,14.37
2023-03-25T09:13:28.030Z,14.41
2023-03-25T09:15:58.878Z,14.41
2023-03-25T09:18:28.348Z,14.46
2023-03-25T09:21:00.541Z,14.49
2023-03-25T09:23:29.210Z,14.50
2023-03-25T09:26:06.681Z,14.51
2023-03-25T09:28:35.482Z,14.57
2023-03-25T09:31:10.261Z,14.59
2023-03-25T09:33:38.998Z,14.60
2023-03-25T09:36:08.451Z,14.61
2023-03-25T09:38:39.442Z,14.60
2023-03-25T09:41:26.984Z,14.59
2023-03-25T09:43:59.127Z,14.58
2023-03-25T09:46:27.549Z,14.62
2023-03-25T09:49:11.032Z,14.66
2023-03-25T10:00:02.304Z,14.49
2023-03-25T10:02:43.891Z,14.45
2023-03-25T10:05:51.150Z,14.45
2023-03-25T10:08:41.987Z,14.43
2023-03-25T10:11:21.054Z,14.39
2023-03-25T10:14:05.359Z,14.38
2023-03-25T10:16:45.760Z,14.41
2023-03-25T10:19:17.883Z,14.39
2023-03-25T10:22:02.238Z,14.36
2023-03-25T10:24:54.910Z,14.41
2023-03-25T10:27:36.676Z,14.42
2023-03-25T10:30:14.991Z,14.42
2023-03-25T10:32:48.495Z,14.45
2023-03-25T10:35:31.628Z,14.49
2023-03-25T10:38:13.921Z,14.52
2023-03-25T10:40:50.537Z,14.59
2023-03-25T10:43:28.281Z,14.60
2023-03-25T10:46:19.054Z,14.64
2023-03-25T10:48:51.706Z,14.71
2023-03-25T10:51:24.609Z,14.75
2023-03-25T10:53:54.982Z,14.77
2023-03-25T10:56:47.376Z,14.79
2023-03-25T10:59:28.067Z,14.79
2023-03-25T11:01:57.318Z,14.78
2023-03-25T11:04:35.339Z,14.89
2023-03-25T11:07:16.651Z,14.96
2023-03-25T11:09:47.800Z,14.98
2023-03-25T11:12:27.297Z,15.04
2023-03-25T11:14:59.191Z,15.03
2023-03-25T11:17:29.435Z,15.02
2023-03-25T11:20:05.849Z,15.01
2023-03-25T11:22:36.205Z,15.04
2023-03-25T11:25:06.998Z,15.06
2023-03-25T11:27:51.388Z,15.06
2023-03-25T11:30:24.274Z,14.98
2023-03-25T11:33:10.614Z,14.98
2023-03-25T11:35:44.700Z,14.95
2023-03-25T11:38:19.208Z,14.94
2023-03-25T11:40:57.575Z,14.91
2023-03-25T11:43:28.500Z,14.90
2023-03-25T11:45:57.109Z,14.89
2023-03-25T11:48:30.372Z,14.88
2023-03-25T11:51:00.855Z,14.90
2023-03-25T11:53:36.309Z,14.90
2023-03-25T11:56:07.551Z,14.90
2023-03-25T11:58:37.722Z,14.93
2023-03-25T12:01:20.474Z,14.89
2023-03-25T12:03:49.393Z,14.88
2023-03-25T12:06:23.718Z,14.85
2023-03-25T12:08:56.825Z,14.80
2023-03-25T12:11:42.709Z,14.76
2023-03-25T12:14:15.983Z,14.73
2023-03-25T12:16:59.353Z,14.68
2023-03-25T12:19:47.221Z,14.64
2023-03-25T12:22:42.548Z,14.68
2023-03-25T12:25:34.152Z,14.68
2023-03-25T12:28:15.230Z,14.63
2023-03-25T12:31:07.356Z,14.58
2023-03-25T12:33:58.266Z,14.51
2023-03-25T12:36:41.924Z,14.56
2023-03-25T12:39:44.694Z,14.55
2023-03-25T12:42:52.695Z,14.52
2023-03-25T12:45:23.945Z,14.51
2023-03-25T12:48:26.294Z,14.50
2023-03-25T12:51:13.436Z,14.54
2023-03-25T12:53:53.532Z,14.57
2023-03-25T12:56:28.417Z,14.56
2023-03-25T12:59:21.679Z,14.58
2023-03-25T13:02:29.160Z,14.56
2023-03-25T13:05:11.569Z,14.54
2023-03-25T13:07:44.274Z,14.55
2023-03-25T13:10:23.275Z,14.55
2023-03-25T13:12:56.530Z,14.53
2023-03-25T13:15:28.046Z,14.53
2023-03-25T13:18:12.223Z,14.52
2023-03-25T13:20:49.791Z,14.51
2023-03-25T13:23:22.243Z,14.51
2023-03-25T13:25:53.270Z,14.45
2023-03-25T13:28:30.469Z,14.47
2023-03-25T13:30:59.452Z,14.49
2023-03-25T13:33:30.542Z,14.52
2023-03-25T13:36:09.829Z,14.48
2023-03-25T13:38:59.703Z,14.44
2023-03-25T13:41:48.115Z,14.42
2023-03-25T13:44:31.379Z,14.44
2023-03-25T13:47:09.483Z,14.41
2023-03-25T13:49:42.540Z,14.39
2023-03-25T13:52:11.397Z,14.35
2023-03-25T13:54:50.179Z,14.33
2023-03-25T13:57:45.441Z,14.36
2023-03-25T14:00:21.712Z,14.32
2023-03-25T14:03:03.921Z,14.32
2023-03-25T14:05:54.498Z,14.29
2023-03-25T14:08:28.776Z,14.32
2023-03-25T14:11:16.736Z,14.31
2023-03-25T14:14:01.612Z,14.34
2023-03-25T14:16:34.401Z,14.38
2023-03-25T14:19:04.421Z,14.36
2023-03-25T14:21:39.679Z,14.33
2023-03-25T14:24:10.950Z,14.36
2023-03-25T14:26:51.681Z,14.33
2023-03-25T14:29:20.078Z,14.23
2023-03-25T14:32:14.209Z,14.09
2023-03-25T14:34:51.762Z,14.08
2023-03-25T14:37:21.882Z,14.10
2023-03-25T14:39:50.462Z,14.08
2023-03-25T14:42:30.058Z,14.01
2023-03-25T14:45:32.438Z,14.05
2023-03-25T14:48:01.236Z,13.97
2023-03-25T14:50:33.240Z,13.95
2023-03-25T14:53:06.995Z,13.97
2023-03-25T14:55:44.477Z,14.00
2023-03-25T14:58:23.355Z,13.96
2023-03-25T15:00:55.447Z,13.92
2023-03-25T15:03:37.294Z,13.91
2023-03-25T15:06:07.016Z,13.99
2023-03-25T15:08:41.990Z,13.98
2023-03-25T15:11:17.116Z,13.98
2023-03-25T15:13:56.460Z,13.99
2023-03-25T15:16:33.840Z,14.00
2023-03-25T15:19:06.121Z,14.02
2023-03-25T15:22:01.527Z,14.04
2023-03-25T15:24:31.998Z,14.04
2023-03-25T15:27:02.537Z,14.03
2023-03-25T15:30:02.249Z,14.04
2023-03-25T15:32:44.373Z,14.06
2023-03-25T15:35:51.375Z,14.02
2023-03-25T15:39:02.128Z,13.96
2023-03-25T15:42:03.551Z,13.98
2023-03-25T15:44:46.982Z,13.90
2023-03-25T15:47:38.229Z,13.87
2023-03-25T15:50:45.868Z,13.84
2023-03-25T15:53:41.803Z,13.88
2023-03-25T15:56:34.220Z,13.88
2023-03-25T15:59:19.148Z,13.82
2023-03-25T16:01:48.765Z,13.76
2023-03-25T16:04:21.768Z,13.73
2023-03-25T16:06:52.527Z,13.76
2023-03-25T16:09:27.983Z,13.74
2023-03-25T16:12:01.290Z,13.70
2023-03-25T16:14:31.730Z,13.65
2023-03-25T16:17:06.029Z,13.57
2023-03-25T16:19:39.268Z,13.55
2023-03-25T16:22:28.302Z,13.51
2023-03-25T16:24:58.174Z,13.51
2023-03-25T16:27:37.800Z,13.52
2023-03-25T16:30:32.984Z,13.50
2023-03-25T16:33:10.978Z,13.39
2023-03-25T16:35:41.687Z,13.34
2023-03-25T16:38:18.342Z,13.29
2023-03-25T16:40:50.376Z,13.30
2023-03-25T16:43:21.256Z,13.27
2023-03-25T16:45:51.747Z,13.24
2023-03-25T16:48:27.594Z,13.22
2023-03-25T16:50:56.991Z,13.22
2023-03-25T16:53:25.897Z,13.16
2023-03-25T16:55:58.991Z,13.11
2023-03-25T16:58:27.947Z,13.10
2023-03-25T17:00:56.336Z,13.15
2023-03-25T17:03:45.019Z,13.18
2023-03-25T17:06:40.742Z,13.16
2023-03-25T17:09:18.141Z,13.14
2023-03-25T17:11:50.221Z,13.12
2023-03-25T17:14:23.496Z,13.15
2023-03-25T17:16:52.266Z,13.18
2023-03-25T17:19:21.833Z,13.19
2023-03-25T17:22:18.849Z,13.20
2023-03-25T17:24:58.058Z,13.14
2023-03-25T17:27:36.609Z,13.08
2023-03-25T17:30:42.765Z,13.05
2023-03-25T17:33:35.909Z,13.07
2023-03-25T17:36:09.238Z,13.07
2023-03-25T17:38:48.514Z,13.07
2023-03-25T17:41:20.184Z,13.08
2023-03-25T17:43:50.918Z,13.07
2023-03-25T17:46:30.827Z,13.16
2023-03-25T17:48:59.778Z,13.17
2023-03-25T17:51:29.967Z,13.14
2023-03-25T17:54:01.641Z,13.13
2023-03-25T17:56:32.635Z,13.12
2023-03-25T17:59:13.257Z,13.08
2023-03-25T18:01:42.196Z,13.07
2023-03-25T18:04:14.352Z,13.07
2023-03-25T18:06:44.792Z,13.01
2023-03-25T18:09:18.614Z,12.90
2023-03-25T18:11:48.610Z,12.72
2023-03-25T18:14:17.973Z,12.56
2023-03-25T18:16:52.254Z,12.44
2023-03-25T18:19:23.536Z,12.34
2023-03-25T18:21:52.584Z,12.20
2023-03-25T18:24:23.777Z,12.12
2023-03-25T18:26:52.103Z,12.11
2023-03-25T18:29:24.241Z,12.11
2023-03-25T18:31:53.121Z,12.09
2023-03-25T18:34:23.740Z,12.03
2023-03-25T18:36:53.995Z,11.99
2023-03-25T18:39:24.279Z,11.99
2023-03-25T18:41:53.025Z,11.97
2023-03-25T18:44:22.111Z,11.94
2023-03-25T18:46:52.338Z,11.92
2023-03-25T18:49:22.349Z,11.90
2023-03-25T18:51:51.473Z,11.90
2023-03-25T18:54:20.238Z,11.87
2023-03-25T18:56:48.715Z,11.81
2023-03-25T18:59:22.166Z,11.81
2023-03-25T19:01:50.347Z,11.82
2023-03-25T19:04:19.485Z,11.85
2023-03-25T19:06:53.691Z,11.87
2023-03-25T19:09:23.790Z,11.86
2023-03-25T19:11:52.799Z,11.85
2023-03-25T19:14:21.237Z,11.81
2023-03-25T19:17:01.129Z,11.81
2023-03-25T19:19:31.190Z,11.85
2023-03-25T19:21:59.922Z,11.81
2023-03-25T19:24:28.912Z,11.78
2023-03-25T19:26:59.039Z,11.73
2023-03-25T19:29:28.228Z,11.69
2023-03-25T19:31:56.502Z,11.59
2023-03-25T19:34:24.982Z,11.54
2023-03-25T19:37:02.522Z,11.50
2023-03-25T19:39:31.485Z,11.45
2023-03-25T19:42:00.582Z,11.40
2023-03-25T19:44:29.523Z,11.37
2023-03-25T19:47:00.853Z,11.39
2023-03-25T19:49:39.168Z,11.38
2023-03-25T19:52:08.766Z,11.33
2023-03-25T19:54:40.780Z,11.27
2023-03-25T19:57:09.913Z,11.25
2023-03-25T19:59:45.719Z,11.22
2023-03-25T20:02:15.782Z,11.16
2023-03-25T20:04:44.740Z,11.12
2023-03-25T20:07:20.525Z,11.09
2023-03-25T20:21:33.293Z,10.82
2023-03-25T20:24:02.188Z,10.82
2023-03-25T20:26:30.557Z,10.74
2023-03-25T20:28:59.344Z,10.78
2023-03-25T20:31:28.522Z,10.83
2023-03-25T20:33:56.822Z,10.86
2023-03-25T20:36:25.188Z,10.84
2023-03-25T20:38:57.534Z,10.74
2023-03-25T20:41:29.421Z,10.80
2023-03-25T20:43:57.780Z,10.76
2023-03-25T20:46:28.912Z,10.77
2023-03-25T20:48:58.036Z,10.75
2023-03-25T20:51:26.310Z,10.74
2023-03-25T20:53:55.650Z,10.70
2023-03-25T20:56:24.004Z,10.73
2023-03-25T20:58:55.174Z,10.69
2023-03-25T21:01:23.830Z,10.68
2023-03-25T21:03:53.558Z,10.63
2023-03-25T21:06:26.588Z,10.60
2023-03-25T21:08:59.568Z,10.58
2023-03-25T21:11:32.170Z,10.57
2023-03-25T21:14:00.757Z,10.55
2023-03-25T21:16:31.311Z,10.57
2023-03-25T21:19:03.046Z,10.55
2023-03-25T21:21:31.639Z,10.55
2023-03-25T21:24:00.610Z,10.55
2023-03-25T21:26:36.578Z,10.53
2023-03-25T21:29:05.760Z,10.53
2023-03-25T21:31:34.587Z,10.50
2023-03-25T21:34:03.962Z,10.51
2023-03-25T21:36:32.779Z,10.51
2023-03-25T21:39:04.598Z,10.53
2023-03-25T21:41:34.294Z,10.51
2023-03-25T21:44:03.090Z,10.49
2023-03-25T21:46:33.693Z,10.45
2023-03-25T21:49:03.938Z,10.44
2023-03-25T21:51:32.572Z,10.43
2023-03-25T21:54:01.148Z,10.38
2023-03-25T21:56:31.667Z,10.37
2023-03-25T21:59:02.017Z,10.37
2023-03-25T22:01:32.710Z,10.41
2023-03-25T22:04:01.795Z,10.42
2023-03-25T22:06:31.584Z,10.40
2023-03-25T22:09:05.794Z,10.36
2023-03-25T22:11:35.823Z,10.34
2023-03-25T22:14:05.640Z,10.34
2023-03-25T22:16:36.152Z,10.34
2023-03-25T22:19:04.926Z,10.34
2023-03-25T22:21:37.149Z,10.34
2023-03-25T22:24:07.782Z,10.37
2023-03-25T22:26:39.381Z,10.35
2023-03-25T22:29:09.718Z,10.32
2023-03-25T22:31:40.863Z,10.30
2023-03-25T22:34:12.019Z,10.32
2023-03-25T22:36:46.323Z,10.31
2023-03-25T22:39:15.413Z,10.31
2023-03-25T22:41:45.418Z,10.28
2023-03-25T22:44:17.197Z,10.31
2023-03-25T22:46:49.053Z,10.31
2023-03-25T22:49:18.839Z,10.29
2023-03-25T22:51:48.944Z,10.28
2023-03-25T22:54:17.396Z,10.25
2023-03-25T22:56:46.211Z,10.21
2023-03-25T22:59:15.632Z,10.20
2023-03-25T23:01:46.670Z,10.19
2023-03-25T23:04:15.868Z,10.18
2023-03-25T23:06:51.154Z,10.20
2023-03-25T23:09:41.880Z,10.18
2023-03-25T23:12:23.099Z,10.16
2023-03-25T23:14:54.524Z,10.20
2023-03-25T23:17:24.354Z,10.21
2023-03-25T23:19:52.774Z,10.22
2023-03-25T23:22:25.313Z,10.22
2023-03-25T23:24:54.604Z,10.23
2023-03-25T23:27:24.524Z,10.25
2023-03-25T23:29:53.012Z,10.27
2023-03-25T23:32:21.449Z,10.26
2023-03-25T23:34:50.369Z,10.28
2023-03-25T23:37:19.259Z,10.30
2023-03-25T23:39:47.550Z,10.31
2023-03-25T23:42:16.932Z,10.32
2023-03-25T23:44:46.024Z,10.35
2023-03-25T23:47:14.608Z,10.39
2023-03-25T23:49:44.314Z,10.36
2023-03-25T23:52:13.784Z,10.34
2023-03-25T23:54:44.047Z,10.33
2023-03-25T23:57:14.634Z,10.27
2023-03-25T23:59:45.714Z,10.26
